»·PEaware :: N461KT KTRK-KOAK

N461KT :: KTRK-KOAK

FLIGHT INFORMATION

Flight Status: Arrived
Operator: Privately registered:
United States
More flights under this callsign
Pilot: Michael S. (35576)
Aircraft: BEECH AIRCRAFT PREMIER
(PRM1)
More flights by this aircraft type
Origin: KTRK Truckee-Tahoe
United States
Destination: KOAK Metro Oakland Intl
United States
More flights between these airports :: More routes between these airports
Route: TRUCK4 TRUCK SWR RBUCL WNDSR2
File this flight plan on PilotEdge
Remarks:
Altitude:
(Current/Filed)
30,000ft
Speed:
(Current/Filed)
290kts
Departed: 27-Dec-21 12:49 PM
Arrived: 27-Dec-21 01:38 PM
Distance/Time
Traveled:
136nm/0:49
Distance/Time
To Go:
Arrived

Flight Plot

Page will automatically refresh every two minutes.

Flight plan parsing failed; only flown route is shown


Map Options




Map Legend


Flown Route
Filed Route
Departure Airport
Arrival Airport
Navaid (VOR, NDB)
Fix

Horizontal Profiles

Position Reports

Time Latitude Longitude Heading Altitude Ground
Speed
27-Dec-21 12:08 39.320848 -120.147514 210 5906ft 0kts
27-Dec-21 12:09 39.320848 -120.147514 210 5906ft 0kts
27-Dec-21 12:10 39.320848 -120.147514 210 5906ft 0kts
27-Dec-21 12:11 39.320848 -120.147514 210 5906ft 0kts
27-Dec-21 12:12 39.320848 -120.147514 210 5906ft 0kts
27-Dec-21 12:13 39.320848 -120.147514 210 5906ft 0kts
27-Dec-21 12:14 39.320848 -120.147514 210 5906ft 0kts
27-Dec-21 12:15 39.320848 -120.147514 210 5906ft 0kts
27-Dec-21 12:16 39.320848 -120.147514 210 5906ft 0kts
27-Dec-21 12:17 39.320848 -120.147514 210 5906ft 0kts
27-Dec-21 12:18 39.320848 -120.147514 210 5906ft 0kts
27-Dec-21 12:19 39.320848 -120.147514 210 5906ft 0kts
27-Dec-21 12:20 39.320848 -120.147514 210 5906ft 0kts
27-Dec-21 12:21 39.320848 -120.147514 210 5906ft 0kts
27-Dec-21 12:22 39.320848 -120.147514 210 5906ft 0kts
27-Dec-21 12:23 39.320848 -120.147514 210 5906ft 0kts
27-Dec-21 12:24 39.320848 -120.147514 210 5906ft 0kts
27-Dec-21 12:25 39.320848 -120.147514 210 5906ft 0kts
27-Dec-21 12:26 39.320848 -120.147514 210 5906ft 0kts
27-Dec-21 12:27 39.320848 -120.147514 210 5906ft 0kts
27-Dec-21 12:28 39.320848 -120.147514 210 5906ft 0kts
27-Dec-21 12:29 39.320795 -120.147567 226 5906ft 0kts
27-Dec-21 12:30 39.320829 -120.146966 119 5906ft 14kts
27-Dec-21 12:31 39.318196 -120.141125 119 5906ft 12kts
27-Dec-21 12:32 39.317448 -120.138517 43 5906ft 15kts
27-Dec-21 12:33 39.315832 -120.134419 122 5906ft 25kts
27-Dec-21 12:34 39.314843 -120.132286 117 5906ft 0kts
27-Dec-21 12:35 39.314843 -120.132286 117 5906ft 0kts
27-Dec-21 12:36 39.314843 -120.132286 117 5906ft 0kts
27-Dec-21 12:37 39.314757 -120.131903 85 5906ft 0kts
27-Dec-21 12:38 39.314757 -120.131903 85 5906ft 0kts
27-Dec-21 12:39 39.314757 -120.131903 85 5906ft 0kts
27-Dec-21 12:40 39.314757 -120.131903 85 5906ft 0kts
27-Dec-21 12:41 39.314757 -120.131903 85 5906ft 0kts
27-Dec-21 12:42 39.314757 -120.131903 85 5906ft 0kts
27-Dec-21 12:43 39.314757 -120.131903 85 5906ft 0kts
27-Dec-21 12:44 39.314757 -120.131903 85 5906ft 0kts
27-Dec-21 12:45 39.314757 -120.131903 85 5906ft 0kts
27-Dec-21 12:46 39.314757 -120.131903 85 5906ft 0kts
27-Dec-21 12:47 39.315715 -120.132370 301 5906ft 12kts
27-Dec-21 12:48 39.338624 -120.164852 336 7100ft 165kts
27-Dec-21 12:49 39.381855 -120.189140 344 9440ft 198kts
27-Dec-21 12:50 39.444620 -120.161635 2 10936ft 265kts
27-Dec-21 12:51 39.480413 -120.222763 250 12353ft 255kts
27-Dec-21 12:52 39.422868 -120.224764 165 15587ft 262kts
27-Dec-21 12:53 39.343802 -120.206352 198 16607ft 295kts
27-Dec-21 12:54 39.262307 -120.235504 206 18449ft 308kts
27-Dec-21 12:55 39.187833 -120.290061 246 20108ft 295kts
27-Dec-21 12:56 39.173205 -120.392103 273 21734ft 290kts
27-Dec-21 12:57 39.167479 -120.499836 275 23188ft 304kts
27-Dec-21 12:58 39.161060 -120.611954 276 24502ft 317kts
27-Dec-21 12:59 39.154343 -120.726285 276 25804ft 326kts
27-Dec-21 13:00 39.147171 -120.847397 277 27024ft 335kts
27-Dec-21 13:01 39.139792 -120.969453 277 28100ft 343kts
27-Dec-21 13:02 39.132008 -121.095410 278 29115ft 351kts
27-Dec-21 13:03 39.123959 -121.224021 278 29872ft 363kts
27-Dec-21 13:04 39.115299 -121.361607 278 29924ft 390kts
27-Dec-21 13:05 39.106071 -121.502501 277 29896ft 409kts
27-Dec-21 13:06 39.095854 -121.654824 276 29895ft 420kts
27-Dec-21 13:07 39.085654 -121.804466 276 29903ft 427kts
27-Dec-21 13:08 39.073375 -121.962432 269 29895ft 443kts
27-Dec-21 13:09 39.000125 -122.106429 230 27660ft 484kts
27-Dec-21 13:10 38.904116 -122.219950 231 25688ft 436kts
27-Dec-21 13:11 38.815533 -122.323476 231 22811ft 417kts
27-Dec-21 13:12 38.734006 -122.417913 231 21944ft 352kts
27-Dec-21 13:13 38.639928 -122.472283 179 19535ft 427kts
27-Dec-21 13:14 38.525298 -122.454845 177 16817ft 404kts
27-Dec-21 13:15 38.419526 -122.438695 178 15764ft 371kts
27-Dec-21 13:16 38.324616 -122.424277 179 13714ft 337kts
27-Dec-21 13:17 38.234895 -122.410708 179 11222ft 309kts
27-Dec-21 13:18 38.149742 -122.397671 178 8604ft 294kts
27-Dec-21 13:19 38.071327 -122.385645 177 6990ft 268kts
27-Dec-21 13:21 37.997012 -122.355815 146 6992ft 297kts
27-Dec-21 13:22 37.930455 -122.292417 146 7014ft 297kts
27-Dec-21 13:23 37.866709 -122.231567 146 5551ft 287kts
27-Dec-21 13:24 37.806965 -122.174697 146 4986ft 255kts
27-Dec-21 13:25 37.774070 -122.101769 103 4052ft 234kts
27-Dec-21 13:26 37.754274 -122.022383 112 4011ft 231kts
27-Dec-21 13:27 37.729501 -121.945374 113 3985ft 234kts
27-Dec-21 13:28 37.693932 -121.883299 152 3988ft 216kts
27-Dec-21 13:29 37.641356 -121.854488 212 4002ft 190kts
27-Dec-21 13:30 37.632126 -121.912162 284 3985ft 178kts
27-Dec-21 13:31 37.648366 -121.969302 290 3534ft 169kts
27-Dec-21 13:32 37.665590 -122.022851 292 2947ft 160kts
27-Dec-21 13:33 37.682713 -122.075126 291 2212ft 148kts
27-Dec-21 13:34 37.694762 -122.112150 292 1560ft 108kts
27-Dec-21 13:35 37.705610 -122.145546 291 1038ft 107kts
27-Dec-21 13:36 37.717433 -122.181513 292 540ft 105kts
27-Dec-21 13:37 37.727883 -122.214326 291 11ft 58kts
27-Dec-21 13:38 37.730289 -122.217551 73 11ft 11kts
27-Dec-21 13:39 37.729617 -122.213786 106 11ft 12kts
27-Dec-21 13:40 37.728979 -122.211272 125 11ft 0kts
27-Dec-21 13:41 37.728913 -122.211153 125 11ft 0kts
27-Dec-21 13:42 37.728913 -122.211153 125 11ft 0kts
27-Dec-21 13:42 37.728913 -122.211153 125 11ft 0kts
27-Dec-21 13:44 37.728913 -122.211153 125 11ft 0kts
27-Dec-21 13:45 37.728913 -122.211153 125 11ft 0kts
27-Dec-21 13:46 37.728913 -122.211153 125 11ft 0kts
27-Dec-21 13:46 37.728913 -122.211153 125 11ft 0kts
27-Dec-21 13:47 37.728913 -122.211153 125 11ft 0kts
27-Dec-21 13:48 37.728913 -122.211153 125 11ft 0kts
27-Dec-21 13:50 37.728913 -122.211153 125 11ft 0kts
27-Dec-21 13:50 37.728913 -122.211153 125 11ft 0kts
27-Dec-21 13:51 37.728913 -122.211153 125 11ft 0kts
27-Dec-21 13:52 37.728913 -122.211153 125 11ft 0kts

Navigation Log

Ident Type
Flight plan parsing failed, navigation log unavailable